createdAt,value
2023-04-16T00:00:09.981Z,21.20
2023-04-16T00:03:23.995Z,22.00
2023-04-16T00:06:18.022Z,23.20
2023-04-16T00:09:11.735Z,22.10
2023-04-16T00:12:06.257Z,22.50
2023-04-16T00:14:59.814Z,22.70
2023-04-16T00:17:53.420Z,24.60
2023-04-16T00:20:47.103Z,23.00
2023-04-16T00:23:40.836Z,25.50
2023-04-16T00:26:34.536Z,24.30
2023-04-16T00:29:28.786Z,26.10
2023-04-16T00:32:22.432Z,25.10
2023-04-16T00:35:16.372Z,24.90
2023-04-16T00:38:10.108Z,26.50
2023-04-16T00:41:03.654Z,26.90
2023-04-16T00:43:57.457Z,25.50
2023-04-16T00:46:51.922Z,26.10
2023-04-16T00:49:45.922Z,27.20
2023-04-16T00:52:40.952Z,30.10
2023-04-16T00:55:34.615Z,30.90
2023-04-16T00:58:29.501Z,25.30
2023-04-16T01:01:23.383Z,30.00
2023-04-16T01:04:17.219Z,24.30
2023-04-16T01:07:11.219Z,26.40
2023-04-16T01:10:05.486Z,26.90
2023-04-16T01:12:59.360Z,27.80
2023-04-16T01:15:53.142Z,29.10
2023-04-16T01:18:46.842Z,27.40
2023-04-16T01:21:40.623Z,26.60
2023-04-16T01:24:34.992Z,26.50
2023-04-16T01:27:28.977Z,28.00
2023-04-16T01:30:22.581Z,26.60
2023-04-16T01:33:18.020Z,24.30
2023-04-16T01:36:11.959Z,26.70
2023-04-16T01:39:05.649Z,26.40
2023-04-16T01:41:59.279Z,24.50
2023-04-16T01:44:52.830Z,26.70
2023-04-16T01:47:46.692Z,25.50
2023-04-16T01:50:40.365Z,25.70
2023-04-16T01:53:36.545Z,22.30
2023-04-16T01:56:30.764Z,26.80
2023-04-16T01:59:24.449Z,27.70
2023-04-16T02:02:19.372Z,27.30
2023-04-16T02:05:13.297Z,26.20
2023-04-16T02:08:07.365Z,25.60
2023-04-16T02:11:01.760Z,24.40
2023-04-16T02:13:55.377Z,28.10
2023-04-16T02:16:49.190Z,24.10
2023-04-16T02:19:42.904Z,24.00
2023-04-16T02:22:36.554Z,24.10
2023-04-16T02:25:30.294Z,23.60
2023-04-16T02:28:24.031Z,27.20
2023-04-16T02:31:19.589Z,24.20
2023-04-16T02:34:13.464Z,23.60
2023-04-16T02:37:07.174Z,27.90
2023-04-16T02:40:01.089Z,26.00
2023-04-16T02:42:55.169Z,25.00
2023-04-16T02:45:49.205Z,26.60
2023-04-16T02:48:43.225Z,26.30
2023-04-16T02:51:37.200Z,24.90
2023-04-16T02:54:30.808Z,24.60
2023-04-16T02:57:24.450Z,26.00
2023-04-16T03:00:18.870Z,25.50
2023-04-16T03:03:12.533Z,26.20
2023-04-16T03:06:06.527Z,23.50
2023-04-16T03:09:00.383Z,27.10
2023-04-16T03:11:54.146Z,24.90
2023-04-16T03:14:47.848Z,26.10
2023-04-16T03:17:41.501Z,25.20
2023-04-16T03:20:35.333Z,26.90
2023-04-16T03:23:29.236Z,24.00
2023-04-16T03:26:23.022Z,25.90
2023-04-16T03:29:16.686Z,25.50
2023-04-16T03:32:12.495Z,26.20
2023-04-16T03:35:06.974Z,28.00
2023-04-16T03:38:00.619Z,25.40
2023-04-16T03:40:54.776Z,29.00
2023-04-16T03:43:48.380Z,28.10
2023-04-16T03:46:41.986Z,27.90
2023-04-16T03:49:35.894Z,26.80
2023-04-16T03:52:29.921Z,28.80
2023-04-16T03:55:23.474Z,28.50
2023-04-16T03:58:17.075Z,34.50
2023-04-16T04:01:10.958Z,33.40
2023-04-16T04:04:05.387Z,28.90
2023-04-16T04:06:59.138Z,31.00
2023-04-16T04:09:52.730Z,30.80
2023-04-16T04:12:46.460Z,32.90
2023-04-16T04:15:40.011Z,36.00
2023-04-16T04:18:33.739Z,40.00
2023-04-16T04:21:28.323Z,34.70
2023-04-16T04:24:21.914Z,33.40
2023-04-16T04:27:15.591Z,29.70
2023-04-16T04:30:11.706Z,34.40
2023-04-16T04:33:05.563Z,35.10
2023-04-16T04:35:59.553Z,36.50
2023-04-16T04:38:53.511Z,32.10
2023-04-16T04:41:47.190Z,35.50
2023-04-16T04:44:40.883Z,33.80
2023-04-16T04:47:34.596Z,35.80
2023-04-16T04:50:28.765Z,38.90
2023-04-16T04:53:22.428Z,36.50
2023-04-16T04:56:16.431Z,37.20
2023-04-16T04:59:10.187Z,37.80
2023-04-16T05:02:04.882Z,36.80
2023-04-16T05:04:59.036Z,37.30
2023-04-16T05:07:52.745Z,33.40
2023-04-16T05:10:46.355Z,32.50
2023-04-16T05:13:39.963Z,33.40
2023-04-16T05:16:33.925Z,31.40
2023-04-16T05:19:27.752Z,32.80
2023-04-16T05:22:21.442Z,35.70
2023-04-16T05:25:19.547Z,34.80
2023-04-16T05:28:13.282Z,39.40
2023-04-16T05:31:07.227Z,30.30
2023-04-16T05:34:01.239Z,37.20
2023-04-16T05:36:56.120Z,42.10
2023-04-16T05:39:49.768Z,40.60
2023-04-16T05:42:43.693Z,45.50
2023-04-16T05:45:41.318Z,41.50
2023-04-16T05:48:35.231Z,40.50
2023-04-16T05:51:28.988Z,36.90
2023-04-16T05:54:22.961Z,38.10
2023-04-16T05:57:17.533Z,36.00
2023-04-16T06:00:13.462Z,36.90
2023-04-16T06:03:07.832Z,36.50
2023-04-16T06:06:01.941Z,33.70
2023-04-16T06:08:55.539Z,33.20
2023-04-16T06:11:49.361Z,32.80
2023-04-16T06:14:43.003Z,32.50
2023-04-16T06:17:36.738Z,29.00
2023-04-16T06:20:30.776Z,32.90
2023-04-16T06:23:24.483Z,31.00
2023-04-16T06:26:18.286Z,29.60
2023-04-16T06:29:12.406Z,29.00
2023-04-16T06:32:06.469Z,27.90
2023-04-16T06:35:00.303Z,28.20
2023-04-16T06:37:54.360Z,25.90
2023-04-16T06:40:49.354Z,26.40
2023-04-16T06:43:43.138Z,23.50
2023-04-16T06:46:36.973Z,25.40
2023-04-16T06:49:30.978Z,23.60
2023-04-16T06:52:24.827Z,23.40
2023-04-16T06:55:19.075Z,28.60
2023-04-16T06:58:12.650Z,29.00
2023-04-16T07:01:06.484Z,23.10
2023-04-16T07:04:00.841Z,23.50
2023-04-16T07:06:55.645Z,26.30
2023-04-16T07:09:49.289Z,23.20
2023-04-16T07:12:42.961Z,22.60
2023-04-16T07:15:37.691Z,22.40
2023-04-16T07:18:31.543Z,20.80
2023-04-16T07:21:26.169Z,23.60
2023-04-16T07:24:20.037Z,24.00
2023-04-16T07:27:13.972Z,21.90
2023-04-16T07:30:09.844Z,18.90
2023-04-16T07:33:04.199Z,16.60
2023-04-16T07:35:58.090Z,17.80
2023-04-16T07:38:37.107Z,17.80
2023-04-16T07:41:31.062Z,23.20
2023-04-16T07:44:24.799Z,18.10
2023-04-16T07:47:18.738Z,18.90
2023-04-16T07:50:14.206Z,18.40
2023-04-16T07:53:08.032Z,17.90
2023-04-16T07:56:01.697Z,17.70
2023-04-16T07:58:55.811Z,14.10
2023-04-16T08:01:49.785Z,15.70
2023-04-16T08:04:44.743Z,14.20
2023-04-16T08:07:39.395Z,14.00
2023-04-16T08:10:33.876Z,23.20
2023-04-16T08:13:28.405Z,18.90
2023-04-16T08:16:22.854Z,16.30
2023-04-16T08:19:17.104Z,18.50
2023-04-16T08:22:11.315Z,15.80
2023-04-16T08:25:05.966Z,20.00
2023-04-16T08:28:00.153Z,25.60
2023-04-16T08:30:55.075Z,19.90
2023-04-16T08:33:48.958Z,20.10
2023-04-16T08:36:42.782Z,21.10
2023-04-16T08:39:37.765Z,18.10
2023-04-16T08:42:37.071Z,18.50
2023-04-16T08:45:32.786Z,19.00
2023-04-16T08:48:30.138Z,19.90
2023-04-16T08:51:25.210Z,18.50
2023-04-16T08:54:27.656Z,16.20
2023-04-16T08:57:24.052Z,17.10
2023-04-16T09:00:19.922Z,16.20
2023-04-16T09:03:14.502Z,15.90
2023-04-16T09:06:09.887Z,14.40
2023-04-16T09:09:06.239Z,14.10
2023-04-16T09:12:00.445Z,20.60
2023-04-16T09:14:54.800Z,18.00
2023-04-16T09:17:48.806Z,14.30
2023-04-16T09:20:43.111Z,14.70
2023-04-16T09:23:38.467Z,12.20
2023-04-16T09:26:32.815Z,14.70
2023-04-16T09:29:40.854Z,12.60
2023-04-16T09:32:34.756Z,12.70
2023-04-16T09:35:28.576Z,13.40
2023-04-16T09:38:22.707Z,14.00
2023-04-16T09:41:17.730Z,12.40
2023-04-16T09:44:11.472Z,13.60
2023-04-16T09:47:08.956Z,12.80
2023-04-16T09:50:04.513Z,13.40
2023-04-16T09:53:04.729Z,15.50
2023-04-16T09:56:00.906Z,12.10
2023-04-16T09:59:00.930Z,14.50
2023-04-16T10:02:15.339Z,24.00
2023-04-16T10:05:16.702Z,12.50
2023-04-16T10:08:18.755Z,17.30
2023-04-16T10:11:12.882Z,11.60
2023-04-16T10:14:06.699Z,12.10
2023-04-16T10:17:01.150Z,10.30
2023-04-16T10:19:58.562Z,11.00
2023-04-16T10:22:54.067Z,31.00
2023-04-16T10:25:48.909Z,20.50
2023-04-16T10:28:43.343Z,12.50
2023-04-16T10:31:37.831Z,19.80
2023-04-16T10:34:32.619Z,15.50
2023-04-16T10:37:33.440Z,15.50
2023-04-16T10:40:30.951Z,14.90
2023-04-16T10:43:26.403Z,14.10
2023-04-16T10:46:25.050Z,12.00
2023-04-16T10:49:21.226Z,9.90
2023-04-16T10:52:18.207Z,7.90
2023-04-16T10:55:23.280Z,9.20
2023-04-16T10:58:36.873Z,12.70
2023-04-16T11:01:38.349Z,9.30
2023-04-16T11:04:36.989Z,13.80
2023-04-16T11:07:39.454Z,14.00
2023-04-16T11:10:59.447Z,12.60
2023-04-16T11:13:58.000Z,17.40
2023-04-16T11:16:51.828Z,11.90
2023-04-16T11:19:46.926Z,16.80
2023-04-16T11:22:41.212Z,20.00
2023-04-16T11:25:35.499Z,12.60
2023-04-16T11:28:39.461Z,11.50
2023-04-16T11:31:33.578Z,27.60
2023-04-16T11:34:27.455Z,32.60
2023-04-16T11:37:32.285Z,23.20
2023-04-16T11:40:26.474Z,18.80
2023-04-16T11:43:20.793Z,20.50
2023-04-16T11:46:24.596Z,17.90
2023-04-16T11:49:31.801Z,17.80
2023-04-16T11:52:33.855Z,18.10
2023-04-16T11:55:27.877Z,17.30
2023-04-16T11:58:23.376Z,15.80
2023-04-16T12:01:40.608Z,14.60
2023-04-16T12:04:36.200Z,15.00
2023-04-16T12:07:15.960Z,12.90
2023-04-16T12:10:14.260Z,13.00
2023-04-16T12:13:18.707Z,13.60
2023-04-16T12:16:22.574Z,11.70
2023-04-16T12:19:16.982Z,13.10
2023-04-16T12:22:10.822Z,13.70
2023-04-16T12:25:06.113Z,13.50
2023-04-16T12:27:59.878Z,11.90
2023-04-16T12:30:54.861Z,11.80
2023-04-16T12:34:10.161Z,12.00
2023-04-16T12:37:10.971Z,12.90
2023-04-16T12:40:05.908Z,12.80
2023-04-16T12:42:59.865Z,13.60
2023-04-16T12:45:54.174Z,12.20
2023-04-16T12:48:49.752Z,11.40
2023-04-16T12:51:43.649Z,11.20
2023-04-16T12:54:39.466Z,11.10
2023-04-16T12:57:33.434Z,12.00
2023-04-16T13:00:27.655Z,11.20
2023-04-16T13:03:21.999Z,11.30
2023-04-16T13:06:17.689Z,10.10
2023-04-16T13:09:12.294Z,10.60
2023-04-16T13:12:07.082Z,10.80
2023-04-16T13:15:00.896Z,10.70
2023-04-16T13:17:54.582Z,10.30
2023-04-16T13:20:48.350Z,10.80
2023-04-16T13:23:42.431Z,10.60
2023-04-16T13:26:36.123Z,10.50
2023-04-16T13:29:30.009Z,9.60
2023-04-16T13:32:23.973Z,9.80
2023-04-16T13:35:18.144Z,9.90
2023-04-16T13:38:12.219Z,9.90
2023-04-16T13:41:06.133Z,9.30
2023-04-16T13:43:59.715Z,11.30
2023-04-16T13:49:35.484Z,8.60
2023-04-16T13:52:29.649Z,8.60
2023-04-16T13:55:23.405Z,9.80
2023-04-16T13:58:17.467Z,10.10
2023-04-16T14:01:12.299Z,9.80
2023-04-16T14:04:08.251Z,12.90
2023-04-16T14:07:02.084Z,8.60
2023-04-16T14:09:55.949Z,13.20
2023-04-16T14:12:49.829Z,9.80
2023-04-16T14:15:43.584Z,7.00
2023-04-16T14:18:41.856Z,8.90
2023-04-16T14:21:35.896Z,8.80
2023-04-16T14:24:29.595Z,8.70
2023-04-16T14:27:23.433Z,8.60
2023-04-16T14:30:17.681Z,7.20
2023-04-16T14:33:11.355Z,7.50
2023-04-16T14:36:05.786Z,7.60
2023-04-16T14:38:59.672Z,8.00
2023-04-16T14:41:53.492Z,9.40
2023-04-16T14:44:47.483Z,7.80
2023-04-16T14:47:46.015Z,8.40
2023-04-16T14:50:48.198Z,7.60
2023-04-16T14:53:42.568Z,7.10
2023-04-16T14:56:36.462Z,7.20
2023-04-16T14:59:30.447Z,7.70
2023-04-16T15:02:24.215Z,7.40
2023-04-16T15:05:17.972Z,7.80
2023-04-16T15:08:12.221Z,7.00
2023-04-16T15:11:05.845Z,8.20
2023-04-16T15:13:59.868Z,7.30
2023-04-16T15:16:54.149Z,7.20
2023-04-16T15:19:47.814Z,7.60
2023-04-16T15:22:41.847Z,9.30
2023-04-16T15:25:35.745Z,7.30
2023-04-16T15:28:29.340Z,7.80
2023-04-16T15:31:23.220Z,7.80
2023-04-16T15:34:17.010Z,6.80
2023-04-16T15:37:10.917Z,7.40
2023-04-16T15:40:05.722Z,8.40
2023-04-16T15:43:00.471Z,10.40
2023-04-16T15:45:54.153Z,7.10
2023-04-16T15:48:47.857Z,8.70
2023-04-16T15:51:41.890Z,7.00
2023-04-16T15:54:35.650Z,7.20
2023-04-16T15:57:29.776Z,7.20
2023-04-16T16:00:23.975Z,8.00
2023-04-16T16:03:18.552Z,7.40
2023-04-16T16:06:13.563Z,7.70
2023-04-16T16:09:08.138Z,10.10
2023-04-16T16:12:02.288Z,7.10
2023-04-16T16:14:56.693Z,7.60
2023-04-16T16:17:52.764Z,8.00
2023-04-16T16:20:46.919Z,7.60
2023-04-16T16:23:40.694Z,9.10
2023-04-16T16:26:34.647Z,6.70
2023-04-16T16:29:28.603Z,8.00
2023-04-16T16:32:22.837Z,9.00
2023-04-16T16:35:16.897Z,7.50
2023-04-16T16:38:11.311Z,7.10
2023-04-16T16:41:05.922Z,8.30
2023-04-16T16:43:59.776Z,8.00
2023-04-16T16:46:53.998Z,7.60
2023-04-16T16:49:47.845Z,8.00
2023-04-16T16:52:41.823Z,8.00
2023-04-16T16:55:36.142Z,7.60
2023-04-16T16:58:31.545Z,8.20
2023-04-16T17:01:26.090Z,7.00
2023-04-16T17:04:20.468Z,7.40
2023-04-16T17:07:14.576Z,8.20
2023-04-16T17:10:11.174Z,8.20
2023-04-16T17:13:08.565Z,7.70
2023-04-16T17:16:02.411Z,9.70
2023-04-16T17:18:57.513Z,7.90
2023-04-16T17:21:51.985Z,12.10
2023-04-16T17:24:45.806Z,8.90
2023-04-16T17:27:39.653Z,9.30
2023-04-16T17:30:34.525Z,9.10
2023-04-16T17:33:28.321Z,11.50
2023-04-16T17:36:23.042Z,12.60
2023-04-16T17:39:17.074Z,10.10
2023-04-16T17:42:10.981Z,9.70
2023-04-16T17:45:05.351Z,12.10
2023-04-16T17:47:59.046Z,15.10
2023-04-16T17:50:53.191Z,10.70
2023-04-16T17:53:46.847Z,11.80
2023-04-16T17:56:40.647Z,9.40
2023-04-16T17:59:34.635Z,12.50
2023-04-16T18:02:28.548Z,11.50
2023-04-16T18:05:22.262Z,11.70
2023-04-16T18:08:15.918Z,10.20
2023-04-16T18:11:11.946Z,12.20
2023-04-16T18:14:05.705Z,9.60
2023-04-16T18:16:59.855Z,8.70
2023-04-16T18:19:53.543Z,9.00
2023-04-16T18:22:47.434Z,9.70
2023-04-16T18:25:41.782Z,8.80
2023-04-16T18:28:35.979Z,10.90
2023-04-16T18:31:29.892Z,11.60
2023-04-16T18:34:25.473Z,10.80
2023-04-16T18:37:19.245Z,10.30
2023-04-16T18:40:15.348Z,12.50
2023-04-16T18:43:09.101Z,10.60
2023-04-16T18:46:05.452Z,11.10
2023-04-16T18:48:59.997Z,10.70
2023-04-16T18:51:55.754Z,12.90
2023-04-16T18:54:49.698Z,12.10
2023-04-16T18:57:43.572Z,13.00
2023-04-16T19:00:37.518Z,13.70
2023-04-16T19:04:19.298Z,11.40
2023-04-16T19:06:48.241Z,13.50
2023-04-16T19:09:41.977Z,13.60
2023-04-16T19:12:36.425Z,12.80
2023-04-16T19:15:32.066Z,14.40
2023-04-16T19:18:27.226Z,11.80
2023-04-16T19:21:21.067Z,12.20
2023-04-16T19:24:14.791Z,13.00
2023-04-16T19:27:08.419Z,12.00
2023-04-16T19:30:02.921Z,15.30
2023-04-16T19:32:56.640Z,12.60
2023-04-16T19:35:50.770Z,12.80
2023-04-16T19:38:44.424Z,15.20
2023-04-16T19:41:38.203Z,14.90
2023-04-16T19:44:32.608Z,16.40
2023-04-16T19:47:26.281Z,16.90
2023-04-16T19:50:20.694Z,17.10
2023-04-16T19:53:16.863Z,18.20
2023-04-16T19:56:10.889Z,17.60
2023-04-16T19:59:04.483Z,15.60
2023-04-16T20:01:58.244Z,17.10
2023-04-16T20:04:53.379Z,18.10
2023-04-16T20:07:52.015Z,16.80
2023-04-16T20:10:46.539Z,21.20
2023-04-16T20:13:40.237Z,25.20
2023-04-16T20:16:33.974Z,22.00
2023-04-16T20:19:31.565Z,22.00
2023-04-16T20:22:25.198Z,21.70
2023-04-16T20:25:20.401Z,25.80
2023-04-16T20:28:21.089Z,25.30
2023-04-16T20:31:15.550Z,20.30
2023-04-16T20:34:09.228Z,25.10
2023-04-16T20:37:02.929Z,25.20
2023-04-16T20:39:56.559Z,25.20
2023-04-16T20:42:52.078Z,20.00
2023-04-16T20:45:46.194Z,26.70
2023-04-16T20:48:40.339Z,26.50
2023-04-16T20:51:34.030Z,27.00
2023-04-16T20:54:32.279Z,26.20
2023-04-16T20:57:28.041Z,30.90
2023-04-16T21:00:22.804Z,29.50
2023-04-16T21:03:16.709Z,26.50
2023-04-16T21:06:32.855Z,28.30
2023-04-16T21:09:27.050Z,29.60
2023-04-16T21:12:21.214Z,30.20
2023-04-16T21:15:15.880Z,28.00
2023-04-16T21:18:10.042Z,27.00
2023-04-16T21:21:03.783Z,27.60
2023-04-16T21:23:57.778Z,28.40
2023-04-16T21:26:51.362Z,27.30
2023-04-16T21:29:45.098Z,26.60
2023-04-16T21:32:39.221Z,28.60
2023-04-16T21:35:35.472Z,26.90
2023-04-16T21:38:29.183Z,26.10
2023-04-16T21:41:22.886Z,28.90
2023-04-16T21:44:16.585Z,27.10
2023-04-16T21:47:10.335Z,29.30
2023-04-16T21:50:04.040Z,26.80
2023-04-16T21:52:57.676Z,27.50
2023-04-16T21:55:51.362Z,28.80
2023-04-16T21:58:45.094Z,26.80
2023-04-16T22:01:38.887Z,24.80
2023-04-16T22:04:38.927Z,27.10
2023-04-16T22:07:32.758Z,24.10
2023-04-16T22:10:26.581Z,22.00
2023-04-16T22:13:20.283Z,25.20
2023-04-16T22:16:14.150Z,24.10
2023-04-16T22:19:07.970Z,23.80
2023-04-16T22:22:01.703Z,22.60
2023-04-16T22:24:55.701Z,21.80
2023-04-16T22:27:49.376Z,22.30
2023-04-16T22:30:43.054Z,22.20
2023-04-16T22:33:36.713Z,24.00
2023-04-16T22:36:30.942Z,21.10
2023-04-16T22:39:24.593Z,20.60
2023-04-16T22:42:18.384Z,21.50
2023-04-16T22:45:13.887Z,20.70
2023-04-16T22:48:07.980Z,22.40
2023-04-16T22:51:02.060Z,20.70
2023-04-16T22:53:56.381Z,19.80
2023-04-16T22:56:50.518Z,18.30
2023-04-16T22:59:44.433Z,17.60
2023-04-16T23:02:38.417Z,19.30
2023-04-16T23:05:32.827Z,18.30
2023-04-16T23:08:26.714Z,21.10
2023-04-16T23:11:20.326Z,18.30
2023-04-16T23:14:16.796Z,17.60
2023-04-16T23:17:10.701Z,17.20
2023-04-16T23:20:07.517Z,16.50
2023-04-16T23:23:01.431Z,16.20
2023-04-16T23:25:57.847Z,17.60
2023-04-16T23:28:51.722Z,16.60
2023-04-16T23:31:45.390Z,17.20
2023-04-16T23:34:39.090Z,15.60
2023-04-16T23:37:32.842Z,17.00
2023-04-16T23:40:26.822Z,16.70
2023-04-16T23:43:20.412Z,16.20
2023-04-16T23:46:14.297Z,15.30
2023-04-16T23:49:08.555Z,16.10
2023-04-16T23:52:02.338Z,14.60
2023-04-16T23:54:56.206Z,14.80
2023-04-16T23:57:49.914Z,15.60
